sensor_id;sensor_type;location;lat;lon;timestamp;temperature;humidity
55016;DHT22;40919;43.236;21.590;2022-09-28T00:01:29;358.70;2329.60
55016;DHT22;40919;43.236;21.590;2022-09-28T00:03:56;358.90;2329.60
55016;DHT22;40919;43.236;21.590;2022-09-28T00:06:27;358.90;2329.60
55016;DHT22;40919;43.236;21.590;2022-09-28T00:08:53;358.90;2329.60
55016;DHT22;40919;43.236;21.590;2022-09-28T00:11:21;359.10;2329.60
55016;DHT22;40919;43.236;21.590;2022-09-28T00:13:52;359.00;2329.60
55016;DHT22;40919;43.236;21.590;2022-09-28T00:16:24;358.80;2329.60
55016;DHT22;40919;43.236;21.590;2022-09-28T00:18:50;359.00;2329.60
55016;DHT22;40919;43.236;21.590;2022-09-28T00:21:22;384.50;2329.60
55016;DHT22;40919;43.236;21.590;2022-09-28T00:23:55;359.10;2329.60
55016;DHT22;40919;43.236;21.590;2022-09-28T00:26:53;359.10;2329.60
55016;DHT22;40919;43.236;21.590;2022-09-28T00:29:31;359.10;2329.60
55016;DHT22;40919;43.236;21.590;2022-09-28T00:32:08;359.10;2329.60
55016;DHT22;40919;43.236;21.590;2022-09-28T00:34:40;359.20;2329.60
55016;DHT22;40919;43.236;21.590;2022-09-28T00:37:07;359.20;2329.60
55016;DHT22;40919;43.236;21.590;2022-09-28T00:39:34;359.10;2329.60
55016;DHT22;40919;43.236;21.590;2022-09-28T00:42:02;359.20;2329.60
55016;DHT22;40919;43.236;21.590;2022-09-28T00:47:20;359.00;2329.60
55016;DHT22;40919;43.236;21.590;2022-09-28T00:52:56;359.10;2329.60
55016;DHT22;40919;43.236;21.590;2022-09-28T00:55:25;359.10;2329.60
55016;DHT22;40919;43.236;21.590;2022-09-28T00:57:55;359.10;2329.60
55016;DHT22;40919;43.236;21.590;2022-09-28T01:00:22;359.10;2329.60
55016;DHT22;40919;43.236;21.590;2022-09-28T01:02:49;358.90;2329.60
55016;DHT22;40919;43.236;21.590;2022-09-28T01:05:17;359.00;2329.60
55016;DHT22;40919;43.236;21.590;2022-09-28T01:07:44;358.90;2329.60
55016;DHT22;40919;43.236;21.590;2022-09-28T01:10:10;359.00;2329.60
55016;DHT22;40919;43.236;21.590;2022-09-28T01:12:37;384.10;2329.60
55016;DHT22;40919;43.236;21.590;2022-09-28T01:15:04;359.10;2329.60
55016;DHT22;40919;43.236;21.590;2022-09-28T01:23:10;358.80;2329.60
55016;DHT22;40919;43.236;21.590;2022-09-28T01:28:45;359.10;2329.60
55016;DHT22;40919;43.236;21.590;2022-09-28T01:31:14;358.80;2329.60
55016;DHT22;40919;43.236;21.590;2022-09-28T01:33:46;358.90;2329.60
55016;DHT22;40919;43.236;21.590;2022-09-28T01:36:28;359.00;2329.60
55016;DHT22;40919;43.236;21.590;2022-09-28T01:39:10;359.00;2329.60
55016;DHT22;40919;43.236;21.590;2022-09-28T01:41:38;358.90;2329.60
55016;DHT22;40919;43.236;21.590;2022-09-28T01:44:09;358.90;2329.60
55016;DHT22;40919;43.236;21.590;2022-09-28T01:46:44;359.00;2329.60
55016;DHT22;40919;43.236;21.590;2022-09-28T01:49:30;359.00;2329.60
55016;DHT22;40919;43.236;21.590;2022-09-28T01:52:08;359.10;2329.60
55016;DHT22;40919;43.236;21.590;2022-09-28T01:54:41;359.10;2329.60
55016;DHT22;40919;43.236;21.590;2022-09-28T01:57:21;359.10;2329.60
55016;DHT22;40919;43.236;21.590;2022-09-28T01:59:58;359.20;2329.60
55016;DHT22;40919;43.236;21.590;2022-09-28T02:03:04;359.10;2329.60
55016;DHT22;40919;43.236;21.590;2022-09-28T02:05:38;359.10;2329.60
55016;DHT22;40919;43.236;21.590;2022-09-28T02:08:15;359.00;2329.60
55016;DHT22;40919;43.236;21.590;2022-09-28T02:14:03;358.80;2329.60
55016;DHT22;40919;43.236;21.590;2022-09-28T02:16:41;358.90;2329.60
55016;DHT22;40919;43.236;21.590;2022-09-28T02:19:10;359.00;2329.60
55016;DHT22;40919;43.236;21.590;2022-09-28T02:26:54;359.00;2329.60
55016;DHT22;40919;43.236;21.590;2022-09-28T02:29:22;359.00;2329.60
55016;DHT22;40919;43.236;21.590;2022-09-28T02:31:49;358.80;2329.60
55016;DHT22;40919;43.236;21.590;2022-09-28T02:34:16;358.90;2329.60
55016;DHT22;40919;43.236;21.590;2022-09-28T02:36:42;358.80;2329.60
55016;DHT22;40919;43.236;21.590;2022-09-28T02:39:15;358.80;2329.60
55016;DHT22;40919;43.236;21.590;2022-09-28T02:45:44;358.70;2329.60
55016;DHT22;40919;43.236;21.590;2022-09-28T02:47:55;358.80;2329.60
55016;DHT22;40919;43.236;21.590;2022-09-28T02:58:55;358.90;2329.60
55016;DHT22;40919;43.236;21.590;2022-09-28T03:04:17;358.80;2329.60
55016;DHT22;40919;43.236;21.590;2022-09-28T03:06:59;358.50;2329.60
55016;DHT22;40919;43.236;21.590;2022-09-28T03:09:48;333.70;2329.60
55016;DHT22;40919;43.236;21.590;2022-09-28T03:12:19;358.70;2329.60
55016;DHT22;40919;43.236;21.590;2022-09-28T03:14:45;358.80;2329.60
55016;DHT22;40919;43.236;21.590;2022-09-28T03:17:11;358.70;2329.60
55016;DHT22;40919;43.236;21.590;2022-09-28T03:19:37;358.70;2329.60
55016;DHT22;40919;43.236;21.590;2022-09-28T03:22:02;358.50;2329.60
55016;DHT22;40919;43.236;21.590;2022-09-28T03:24:30;358.70;2329.60
55016;DHT22;40919;43.236;21.590;2022-09-28T03:26:56;358.40;2329.60
55016;DHT22;40919;43.236;21.590;2022-09-28T03:29:21;358.50;2329.60
55016;DHT22;40919;43.236;21.590;2022-09-28T03:31:48;358.60;2329.60
55016;DHT22;40919;43.236;21.590;2022-09-28T03:34:14;358.60;2329.60
55016;DHT22;40919;43.236;21.590;2022-09-28T03:36:40;358.80;2329.60
55016;DHT22;40919;43.236;21.590;2022-09-28T03:39:05;358.60;2329.60
55016;DHT22;40919;43.236;21.590;2022-09-28T03:41:31;358.70;2329.60
55016;DHT22;40919;43.236;21.590;2022-09-28T03:43:57;358.70;2329.60
55016;DHT22;40919;43.236;21.590;2022-09-28T03:46:23;358.60;2329.60
55016;DHT22;40919;43.236;21.590;2022-09-28T03:48:49;358.60;2329.60
55016;DHT22;40919;43.236;21.590;2022-09-28T03:51:14;358.40;2329.60
55016;DHT22;40919;43.236;21.590;2022-09-28T03:53:40;358.50;2329.60
55016;DHT22;40919;43.236;21.590;2022-09-28T03:56:15;358.50;2329.60
55016;DHT22;40919;43.236;21.590;2022-09-28T03:58:41;358.50;2329.60
55016;DHT22;40919;43.236;21.590;2022-09-28T04:01:09;358.60;2329.60
55016;DHT22;40919;43.236;21.590;2022-09-28T04:03:38;358.50;2329.60
55016;DHT22;40919;43.236;21.590;2022-09-28T04:06:04;358.50;2329.60
55016;DHT22;40919;43.236;21.590;2022-09-28T04:08:30;358.50;2329.60
55016;DHT22;40919;43.236;21.590;2022-09-28T04:11:00;358.50;2329.60
55016;DHT22;40919;43.236;21.590;2022-09-28T04:13:27;358.70;2329.60
55016;DHT22;40919;43.236;21.590;2022-09-28T04:15:55;358.40;2329.60
55016;DHT22;40919;43.236;21.590;2022-09-28T04:18:21;358.50;2329.60
55016;DHT22;40919;43.236;21.590;2022-09-28T04:20:49;358.50;2329.60
55016;DHT22;40919;43.236;21.590;2022-09-28T04:23:22;358.50;2304.00
55016;DHT22;40919;43.236;21.590;2022-09-28T04:25:51;358.60;2329.60
55016;DHT22;40919;43.236;21.590;2022-09-28T04:28:16;358.70;2329.60
55016;DHT22;40919;43.236;21.590;2022-09-28T04:31:00;358.70;2329.60
55016;DHT22;40919;43.236;21.590;2022-09-28T04:33:26;358.80;2329.60
55016;DHT22;40919;43.236;21.590;2022-09-28T04:35:52;358.50;2329.60
55016;DHT22;40919;43.236;21.590;2022-09-28T04:38:18;358.50;2329.60
55016;DHT22;40919;43.236;21.590;2022-09-28T04:40:43;358.70;2329.60
55016;DHT22;40919;43.236;21.590;2022-09-28T04:43:09;358.70;2329.60
55016;DHT22;40919;43.236;21.590;2022-09-28T04:45:35;358.80;2329.60
55016;DHT22;40919;43.236;21.590;2022-09-28T04:48:01;358.80;2329.60
55016;DHT22;40919;43.236;21.590;2022-09-28T04:50:27;358.80;2329.60
55016;DHT22;40919;43.236;21.590;2022-09-28T04:52:52;358.50;2329.60
55016;DHT22;40919;43.236;21.590;2022-09-28T04:55:18;358.70;2304.00
55016;DHT22;40919;43.236;21.590;2022-09-28T04:57:45;358.50;2329.60
55016;DHT22;40919;43.236;21.590;2022-09-28T05:00:11;358.70;1971.20
55016;DHT22;40919;43.236;21.590;2022-09-28T05:02:37;358.80;2329.60
55016;DHT22;40919;43.236;21.590;2022-09-28T05:05:03;358.80;2329.60
55016;DHT22;40919;43.236;21.590;2022-09-28T05:07:29;358.70;2329.60
55016;DHT22;40919;43.236;21.590;2022-09-28T05:09:55;358.90;2329.60
55016;DHT22;40919;43.236;21.590;2022-09-28T05:12:21;358.80;2329.60
55016;DHT22;40919;43.236;21.590;2022-09-28T05:14:48;358.60;2329.60
55016;DHT22;40919;43.236;21.590;2022-09-28T05:17:13;358.80;2329.60
55016;DHT22;40919;43.236;21.590;2022-09-28T05:19:39;358.70;2329.60
55016;DHT22;40919;43.236;21.590;2022-09-28T05:22:05;358.70;2329.60
55016;DHT22;40919;43.236;21.590;2022-09-28T05:24:35;358.80;2329.60
55016;DHT22;40919;43.236;21.590;2022-09-28T05:27:01;359.00;2329.60
55016;DHT22;40919;43.236;21.590;2022-09-28T05:29:27;358.90;2329.60
55016;DHT22;40919;43.236;21.590;2022-09-28T05:31:53;358.80;2329.60
55016;DHT22;40919;43.236;21.590;2022-09-28T05:34:18;358.90;2150.40
55016;DHT22;40919;43.236;21.590;2022-09-28T05:36:44;359.00;2329.60
55016;DHT22;40919;43.236;21.590;2022-09-28T05:39:10;359.20;2329.60
55016;DHT22;40919;43.236;21.590;2022-09-28T05:41:36;384.00;2329.60
55016;DHT22;40919;43.236;21.590;2022-09-28T05:44:02;359.30;2329.60
55016;DHT22;40919;43.236;21.590;2022-09-28T05:46:28;359.30;2329.60
55016;DHT22;40919;43.236;21.590;2022-09-28T05:48:53;359.30;2329.60
55016;DHT22;40919;43.236;21.590;2022-09-28T05:51:20;359.30;2329.60
55016;DHT22;40919;43.236;21.590;2022-09-28T05:53:46;359.20;2329.60
55016;DHT22;40919;43.236;21.590;2022-09-28T05:56:12;359.30;2329.60
55016;DHT22;40919;43.236;21.590;2022-09-28T05:58:37;359.30;2124.80
55016;DHT22;40919;43.236;21.590;2022-09-28T06:01:03;384.00;2329.60
55016;DHT22;40919;43.236;21.590;2022-09-28T06:03:29;359.30;2329.60
55016;DHT22;40919;43.236;21.590;2022-09-28T06:05:55;384.00;2329.60
55016;DHT22;40919;43.236;21.590;2022-09-28T06:08:21;384.10;2329.60
55016;DHT22;40919;43.236;21.590;2022-09-28T06:10:46;384.10;2329.60
55016;DHT22;40919;43.236;21.590;2022-09-28T06:13:12;384.10;2329.60
55016;DHT22;40919;43.236;21.590;2022-09-28T06:15:41;384.30;2329.60
55016;DHT22;40919;43.236;21.590;2022-09-28T06:18:11;384.40;1971.20
55016;DHT22;40919;43.236;21.590;2022-09-28T06:20:39;384.30;2329.60
55016;DHT22;40919;43.236;21.590;2022-09-28T06:23:07;384.20;2329.60
55016;DHT22;40919;43.236;21.590;2022-09-28T06:25:32;384.30;2329.60
55016;DHT22;40919;43.236;21.590;2022-09-28T06:28:04;384.40;2329.60
55016;DHT22;40919;43.236;21.590;2022-09-28T06:30:32;384.30;2329.60
55016;DHT22;40919;43.236;21.590;2022-09-28T06:32:59;384.30;2329.60
55016;DHT22;40919;43.236;21.590;2022-09-28T06:35:28;384.50;2329.60
55016;DHT22;40919;43.236;21.590;2022-09-28T06:37:55;384.40;2329.60
55016;DHT22;40919;43.236;21.590;2022-09-28T06:40:21;384.70;2201.60
55016;DHT22;40919;43.236;21.590;2022-09-28T06:45:24;384.80;2329.60
55016;DHT22;40919;43.236;21.590;2022-09-28T06:47:55;384.80;2329.60
55016;DHT22;40919;43.236;21.590;2022-09-28T06:50:26;384.90;2329.60
55016;DHT22;40919;43.236;21.590;2022-09-28T06:52:53;409.60;2355.20
55016;DHT22;40919;43.236;21.590;2022-09-28T06:55:20;409.90;2355.20
55016;DHT22;40919;43.236;21.590;2022-09-28T06:57:46;409.80;2355.20
55016;DHT22;40919;43.236;21.590;2022-09-28T07:00:13;410.20;2355.20
55016;DHT22;40919;43.236;21.590;2022-09-28T07:02:39;409.70;2355.20
55016;DHT22;40919;43.236;21.590;2022-09-28T07:05:05;410.20;2355.20
55016;DHT22;40919;43.236;21.590;2022-09-28T07:07:32;410.30;2355.20
55016;DHT22;40919;43.236;21.590;2022-09-28T07:09:58;410.40;2355.20
55016;DHT22;40919;43.236;21.590;2022-09-28T07:12:24;410.40;2355.20
55016;DHT22;40919;43.236;21.590;2022-09-28T07:14:51;410.50;2355.20
55016;DHT22;40919;43.236;21.590;2022-09-28T07:17:22;435.30;2355.20
55016;DHT22;40919;43.236;21.590;2022-09-28T07:19:48;435.30;2355.20
55016;DHT22;40919;43.236;21.590;2022-09-28T07:22:20;435.30;2355.20
55016;DHT22;40919;43.236;21.590;2022-09-28T07:24:46;435.60;2355.20
55016;DHT22;40919;43.236;21.590;2022-09-28T07:27:13;435.50;2355.20
55016;DHT22;40919;43.236;21.590;2022-09-28T07:29:39;410.00;2355.20
55016;DHT22;40919;43.236;21.590;2022-09-28T07:32:05;435.80;2355.20
55016;DHT22;40919;43.236;21.590;2022-09-28T07:34:31;435.80;2355.20
55016;DHT22;40919;43.236;21.590;2022-09-28T07:37:00;435.90;2355.20
55016;DHT22;40919;43.236;21.590;2022-09-28T07:39:26;435.90;2355.20
55016;DHT22;40919;43.236;21.590;2022-09-28T07:41:51;436.10;2355.20
55016;DHT22;40919;43.236;21.590;2022-09-28T07:44:17;436.10;2355.20
55016;DHT22;40919;43.236;21.590;2022-09-28T07:46:43;436.10;2355.20
55016;DHT22;40919;43.236;21.590;2022-09-28T07:49:09;460.80;2380.80
55016;DHT22;40919;43.236;21.590;2022-09-28T07:51:35;460.90;2380.80
55016;DHT22;40919;43.236;21.590;2022-09-28T07:54:01;460.90;2380.80
55016;DHT22;40919;43.236;21.590;2022-09-28T07:56:28;460.90;2380.80
55016;DHT22;40919;43.236;21.590;2022-09-28T07:58:55;461.00;2380.80
55016;DHT22;40919;43.236;21.590;2022-09-28T08:01:21;461.10;2380.80
55016;DHT22;40919;43.236;21.590;2022-09-28T08:03:46;461.20;2380.80
55016;DHT22;40919;43.236;21.590;2022-09-28T08:06:15;461.10;2380.80
55016;DHT22;40919;43.236;21.590;2022-09-28T08:08:42;461.40;2380.80
55016;DHT22;40919;43.236;21.590;2022-09-28T08:11:15;461.30;2380.80
55016;DHT22;40919;43.236;21.590;2022-09-28T08:13:42;461.40;2380.80
55016;DHT22;40919;43.236;21.590;2022-09-28T08:16:10;461.40;2380.80
55016;DHT22;40919;43.236;21.590;2022-09-28T08:18:36;461.40;2380.80
55016;DHT22;40919;43.236;21.590;2022-09-28T08:21:04;461.60;2380.80
55016;DHT22;40919;43.236;21.590;2022-09-28T08:26:15;486.60;2380.80
55016;DHT22;40919;43.236;21.590;2022-09-28T08:33:34;486.80;2380.80
55016;DHT22;40919;43.236;21.590;2022-09-28T08:36:01;486.70;2380.80
55016;DHT22;40919;43.236;21.590;2022-09-28T08:38:28;486.80;2380.80
55016;DHT22;40919;43.236;21.590;2022-09-28T08:41:38;486.90;2380.80
55016;DHT22;40919;43.236;21.590;2022-09-28T08:44:18;486.90;2380.80
55016;DHT22;40919;43.236;21.590;2022-09-28T08:46:57;487.10;2380.80
55016;DHT22;40919;43.236;21.590;2022-09-28T08:49:37;487.10;2380.80
55016;DHT22;40919;43.236;21.590;2022-09-28T08:52:26;487.20;2380.80
55016;DHT22;40919;43.236;21.590;2022-09-28T08:54:53;487.20;2380.80
55016;DHT22;40919;43.236;21.590;2022-09-28T08:57:32;487.30;2380.80
55016;DHT22;40919;43.236;21.590;2022-09-28T09:00:03;512.00;2380.80
55016;DHT22;40919;43.236;21.590;2022-09-28T09:02:34;512.10;2380.80
55016;DHT22;40919;43.236;21.590;2022-09-28T09:05:08;512.10;2380.80
55016;DHT22;40919;43.236;21.590;2022-09-28T09:07:57;512.20;2380.80
55016;DHT22;40919;43.236;21.590;2022-09-28T09:10:41;512.40;2380.80
55016;DHT22;40919;43.236;21.590;2022-09-28T09:16:10;512.40;2380.80
55016;DHT22;40919;43.236;21.590;2022-09-28T09:18:58;512.50;2380.80
55016;DHT22;40919;43.236;21.590;2022-09-28T09:22:16;512.70;2380.80
55016;DHT22;40919;43.236;21.590;2022-09-28T09:47:05;538.50;2406.40
55016;DHT22;40919;43.236;21.590;2022-09-28T09:52:06;563.20;2432.00
55016;DHT22;40919;43.236;21.590;2022-09-28T09:59:39;563.20;2432.00
55016;DHT22;40919;43.236;21.590;2022-09-28T10:02:30;563.40;2432.00
55016;DHT22;40919;43.236;21.590;2022-09-28T10:05:04;563.60;2432.00
55016;DHT22;40919;43.236;21.590;2022-09-28T10:07:42;563.80;2432.00
55016;DHT22;40919;43.236;21.590;2022-09-28T10:10:33;563.80;2432.00
55016;DHT22;40919;43.236;21.590;2022-09-28T10:13:00;588.80;2432.00
55016;DHT22;40919;43.236;21.590;2022-09-28T11:23:32;563.60;2432.00
55016;DHT22;40919;43.236;21.590;2022-09-28T11:26:03;563.30;2432.00
55016;DHT22;40919;43.236;21.590;2022-09-28T11:28:32;563.50;2432.00
55016;DHT22;40919;43.236;21.590;2022-09-28T11:31:01;564.00;2432.00
55016;DHT22;40919;43.236;21.590;2022-09-28T11:47:07;588.80;2432.00
55016;DHT22;40919;43.236;21.590;2022-09-28T11:52:26;614.50;2432.00
55016;DHT22;40919;43.236;21.590;2022-09-28T11:55:05;614.50;2432.00
55016;DHT22;40919;43.236;21.590;2022-09-28T12:48:41;589.50;2432.00
55016;DHT22;40919;43.236;21.590;2022-09-28T12:51:43;589.50;2432.00
55016;DHT22;40919;43.236;21.590;2022-09-28T13:05:22;589.50;2432.00
55016;DHT22;40919;43.236;21.590;2022-09-28T13:10:44;589.50;2432.00
55016;DHT22;40919;43.236;21.590;2022-09-28T13:15:54;614.60;2432.00
55016;DHT22;40919;43.236;21.590;2022-09-28T13:18:38;614.50;2432.00
55016;DHT22;40919;43.236;21.590;2022-09-28T13:21:36;614.40;2432.00
55016;DHT22;40919;43.236;21.590;2022-09-28T13:24:08;589.70;2432.00
55016;DHT22;40919;43.236;21.590;2022-09-28T13:26:40;589.60;2432.00
55016;DHT22;40919;43.236;21.590;2022-09-28T13:29:18;589.60;2432.00
55016;DHT22;40919;43.236;21.590;2022-09-28T13:31:52;589.40;2432.00
55016;DHT22;40919;43.236;21.590;2022-09-28T13:34:21;589.50;2432.00
55016;DHT22;40919;43.236;21.590;2022-09-28T13:37:18;589.40;2432.00
55016;DHT22;40919;43.236;21.590;2022-09-28T13:53:33;640.00;2432.00
55016;DHT22;40919;43.236;21.590;2022-09-28T14:04:24;666.30;2278.40
55016;DHT22;40919;43.236;21.590;2022-09-28T14:06:54;691.30;2278.40
55016;DHT22;40919;43.236;21.590;2022-09-28T14:14:59;691.40;2227.20
55016;DHT22;40919;43.236;21.590;2022-09-28T14:20:14;666.50;2252.80
55016;DHT22;40919;43.236;21.590;2022-09-28T14:25:42;640.50;2329.60
55016;DHT22;40919;43.236;21.590;2022-09-28T14:30:51;640.10;2355.20
55016;DHT22;40919;43.236;21.590;2022-09-28T14:33:27;640.00;2380.80
55016;DHT22;40919;43.236;21.590;2022-09-28T14:41:26;615.10;2406.40
55016;DHT22;40919;43.236;21.590;2022-09-28T14:44:03;614.80;2432.00
55016;DHT22;40919;43.236;21.590;2022-09-28T14:46:34;614.80;2432.00
55016;DHT22;40919;43.236;21.590;2022-09-28T14:54:23;614.40;2406.40
55016;DHT22;40919;43.236;21.590;2022-09-28T14:59:29;614.50;2355.20
55016;DHT22;40919;43.236;21.590;2022-09-28T15:01:59;589.70;2355.20
55016;DHT22;40919;43.236;21.590;2022-09-28T15:04:35;589.70;2355.20
55016;DHT22;40919;43.236;21.590;2022-09-28T15:07:03;589.70;2406.40
55016;DHT22;40919;43.236;21.590;2022-09-28T15:09:32;589.60;2432.00
55016;DHT22;40919;43.236;21.590;2022-09-28T15:12:24;589.60;2432.00
55016;DHT22;40919;43.236;21.590;2022-09-28T15:14:57;589.50;2406.40
55016;DHT22;40919;43.236;21.590;2022-09-28T15:17:29;589.50;2380.80
55016;DHT22;40919;43.236;21.590;2022-09-28T15:32:52;589.20;2380.80
55016;DHT22;40919;43.236;21.590;2022-09-28T15:35:23;589.10;2380.80
55016;DHT22;40919;43.236;21.590;2022-09-28T15:42:44;589.00;2355.20
55016;DHT22;40919;43.236;21.590;2022-09-28T15:48:21;564.00;2432.00
55016;DHT22;40919;43.236;21.590;2022-09-28T15:56:03;564.10;2432.00
55016;DHT22;40919;43.236;21.590;2022-09-28T15:58:34;563.90;2406.40
55016;DHT22;40919;43.236;21.590;2022-09-28T16:01:27;563.90;2432.00
55016;DHT22;40919;43.236;21.590;2022-09-28T16:03:56;563.60;2432.00
55016;DHT22;40919;43.236;21.590;2022-09-28T16:06:21;563.60;2432.00
55016;DHT22;40919;43.236;21.590;2022-09-28T16:08:47;563.50;2432.00
55016;DHT22;40919;43.236;21.590;2022-09-28T16:11:23;563.50;2432.00
55016;DHT22;40919;43.236;21.590;2022-09-28T16:16:51;563.20;2432.00
55016;DHT22;40919;43.236;21.590;2022-09-28T16:19:27;563.20;2432.00
55016;DHT22;40919;43.236;21.590;2022-09-28T16:45:04;538.00;2406.40
55016;DHT22;40919;43.236;21.590;2022-09-28T16:57:43;538.00;2406.40
55016;DHT22;40919;43.236;21.590;2022-09-28T17:05:35;537.90;2406.40
55016;DHT22;40919;43.236;21.590;2022-09-28T17:08:03;537.70;2406.40
55016;DHT22;40919;43.236;21.590;2022-09-28T17:10:39;537.60;2406.40
55016;DHT22;40919;43.236;21.590;2022-09-28T17:13:08;512.90;2380.80
55016;DHT22;40919;43.236;21.590;2022-09-28T17:15:37;512.80;2380.80
55016;DHT22;40919;43.236;21.590;2022-09-28T17:18:05;512.70;2380.80
55016;DHT22;40919;43.236;21.590;2022-09-28T17:20:31;512.70;2380.80
55016;DHT22;40919;43.236;21.590;2022-09-28T17:22:57;512.70;2380.80
55016;DHT22;40919;43.236;21.590;2022-09-28T17:25:25;512.60;2380.80
55016;DHT22;40919;43.236;21.590;2022-09-28T17:27:53;512.50;2380.80
55016;DHT22;40919;43.236;21.590;2022-09-28T17:30:21;512.40;2380.80
55016;DHT22;40919;43.236;21.590;2022-09-28T17:32:47;512.40;2380.80
55016;DHT22;40919;43.236;21.590;2022-09-28T17:35:17;512.30;2380.80
55016;DHT22;40919;43.236;21.590;2022-09-28T17:40:27;512.40;2380.80
55016;DHT22;40919;43.236;21.590;2022-09-28T17:42:55;512.40;2380.80
55016;DHT22;40919;43.236;21.590;2022-09-28T17:47:50;512.30;2380.80
55016;DHT22;40919;43.236;21.590;2022-09-28T17:50:24;512.10;2380.80
55016;DHT22;40919;43.236;21.590;2022-09-28T18:02:42;512.20;2380.80
55016;DHT22;40919;43.236;21.590;2022-09-28T18:05:09;512.10;2380.80
55016;DHT22;40919;43.236;21.590;2022-09-28T18:07:40;512.00;2380.80
55016;DHT22;40919;43.236;21.590;2022-09-28T18:10:12;512.00;2380.80
55016;DHT22;40919;43.236;21.590;2022-09-28T18:27:15;487.30;2380.80
55016;DHT22;40919;43.236;21.590;2022-09-28T18:29:41;487.10;2380.80
55016;DHT22;40919;43.236;21.590;2022-09-28T18:32:06;487.10;2380.80
55016;DHT22;40919;43.236;21.590;2022-09-28T19:35:59;486.50;2380.80
55016;DHT22;40919;43.236;21.590;2022-09-28T19:38:30;486.40;2380.80
55016;DHT22;40919;43.236;21.590;2022-09-28T19:40:57;461.60;2380.80
55016;DHT22;40919;43.236;21.590;2022-09-28T19:43:23;461.50;2380.80
55016;DHT22;40919;43.236;21.590;2022-09-28T19:45:51;461.40;2380.80
55016;DHT22;40919;43.236;21.590;2022-09-28T19:48:18;461.30;2380.80
55016;DHT22;40919;43.236;21.590;2022-09-28T19:51:01;461.40;2380.80
55016;DHT22;40919;43.236;21.590;2022-09-28T19:53:29;461.30;2380.80
55016;DHT22;40919;43.236;21.590;2022-09-28T19:55:57;461.30;2380.80
55016;DHT22;40919;43.236;21.590;2022-09-28T19:58:28;461.40;2380.80
55016;DHT22;40919;43.236;21.590;2022-09-28T20:00:55;461.40;2380.80
55016;DHT22;40919;43.236;21.590;2022-09-28T20:03:20;461.40;2380.80
55016;DHT22;40919;43.236;21.590;2022-09-28T20:05:47;461.50;2380.80
55016;DHT22;40919;43.236;21.590;2022-09-28T20:08:14;461.50;2380.80
55016;DHT22;40919;43.236;21.590;2022-09-28T20:10:50;461.00;2380.80
55016;DHT22;40919;43.236;21.590;2022-09-28T20:13:17;461.50;2380.80
55016;DHT22;40919;43.236;21.590;2022-09-28T20:15:43;461.50;2380.80
55016;DHT22;40919;43.236;21.590;2022-09-28T20:18:09;486.40;2380.80
55016;DHT22;40919;43.236;21.590;2022-09-28T20:20:37;461.30;2380.80
55016;DHT22;40919;43.236;21.590;2022-09-28T20:23:03;461.20;2380.80
55016;DHT22;40919;43.236;21.590;2022-09-28T20:25:29;461.10;2380.80
55016;DHT22;40919;43.236;21.590;2022-09-28T20:27:55;461.00;2380.80
55016;DHT22;40919;43.236;21.590;2022-09-28T20:30:21;461.20;2380.80
55016;DHT22;40919;43.236;21.590;2022-09-28T20:32:47;461.40;2380.80
55016;DHT22;40919;43.236;21.590;2022-09-28T20:35:13;461.50;2380.80
55016;DHT22;40919;43.236;21.590;2022-09-28T20:37:39;461.40;2380.80
55016;DHT22;40919;43.236;21.590;2022-09-28T20:40:06;461.40;2380.80
55016;DHT22;40919;43.236;21.590;2022-09-28T20:42:32;461.40;2380.80
55016;DHT22;40919;43.236;21.590;2022-09-28T20:44:58;461.50;2380.80
55016;DHT22;40919;43.236;21.590;2022-09-28T20:47:23;461.50;2380.80
55016;DHT22;40919;43.236;21.590;2022-09-28T20:49:49;461.50;2380.80
55016;DHT22;40919;43.236;21.590;2022-09-28T20:52:15;461.50;2380.80
55016;DHT22;40919;43.236;21.590;2022-09-28T20:54:41;461.50;2380.80
55016;DHT22;40919;43.236;21.590;2022-09-28T20:57:07;461.50;2380.80
55016;DHT22;40919;43.236;21.590;2022-09-28T20:59:47;461.60;2380.80
55016;DHT22;40919;43.236;21.590;2022-09-28T21:02:15;461.50;2380.80
55016;DHT22;40919;43.236;21.590;2022-09-28T21:04:44;461.50;2380.80
55016;DHT22;40919;43.236;21.590;2022-09-28T21:07:10;461.50;2380.80
55016;DHT22;40919;43.236;21.590;2022-09-28T21:09:36;461.50;2380.80
55016;DHT22;40919;43.236;21.590;2022-09-28T21:12:02;461.30;2380.80
55016;DHT22;40919;43.236;21.590;2022-09-28T21:14:29;461.00;2380.80
55016;DHT22;40919;43.236;21.590;2022-09-28T21:16:55;460.90;2380.80
55016;DHT22;40919;43.236;21.590;2022-09-28T21:19:22;460.90;2380.80
55016;DHT22;40919;43.236;21.590;2022-09-28T21:21:49;460.90;2380.80
55016;DHT22;40919;43.236;21.590;2022-09-28T21:24:14;435.80;2355.20
55016;DHT22;40919;43.236;21.590;2022-09-28T21:26:40;460.90;2380.80
55016;DHT22;40919;43.236;21.590;2022-09-28T21:29:10;461.00;2380.80
55016;DHT22;40919;43.236;21.590;2022-09-28T21:31:38;460.90;2380.80
55016;DHT22;40919;43.236;21.590;2022-09-28T21:34:05;460.90;2380.80
55016;DHT22;40919;43.236;21.590;2022-09-28T21:36:31;460.90;2380.80
55016;DHT22;40919;43.236;21.590;2022-09-28T21:38:57;460.80;2380.80
55016;DHT22;40919;43.236;21.590;2022-09-28T21:41:23;436.10;2355.20
55016;DHT22;40919;43.236;21.590;2022-09-28T21:43:50;435.90;2355.20
55016;DHT22;40919;43.236;21.590;2022-09-28T21:46:17;435.90;2355.20
55016;DHT22;40919;43.236;21.590;2022-09-28T21:48:43;435.80;2355.20
55016;DHT22;40919;43.236;21.590;2022-09-28T21:51:12;435.90;2355.20
55016;DHT22;40919;43.236;21.590;2022-09-28T21:53:38;435.90;2355.20
55016;DHT22;40919;43.236;21.590;2022-09-28T21:56:06;435.80;2355.20
55016;DHT22;40919;43.236;21.590;2022-09-28T21:58:33;435.60;2355.20
55016;DHT22;40919;43.236;21.590;2022-09-28T22:01:14;435.60;2355.20
55016;DHT22;40919;43.236;21.590;2022-09-28T22:03:42;435.50;2355.20
55016;DHT22;40919;43.236;21.590;2022-09-28T22:06:08;435.60;2355.20
55016;DHT22;40919;43.236;21.590;2022-09-28T22:08:35;435.50;2355.20
55016;DHT22;40919;43.236;21.590;2022-09-28T22:11:08;435.40;2355.20
55016;DHT22;40919;43.236;21.590;2022-09-28T22:13:34;435.50;2355.20